createdAt,value
2019-04-29T00:02:30.587Z,8.80
2019-04-29T00:05:00.815Z,8.80
2019-04-29T00:07:31.109Z,8.80
2019-04-29T00:10:01.261Z,8.80
2019-04-29T00:12:31.692Z,8.80
2019-04-29T00:15:20.901Z,8.80
2019-04-29T00:18:01.321Z,8.80
2019-04-29T00:20:37.839Z,8.80
2019-04-29T00:23:08.314Z,8.80
2019-04-29T00:25:38.555Z,8.90
2019-04-29T00:28:08.895Z,8.90
2019-04-29T00:30:39.224Z,8.90
2019-04-29T00:33:09.582Z,8.90
2019-04-29T00:35:39.705Z,8.90
2019-04-29T00:38:35.977Z,9.00
2019-04-29T00:41:31.032Z,9.00
2019-04-29T00:44:04.045Z,9.00
2019-04-29T00:46:34.334Z,9.00
2019-04-29T00:49:04.767Z,9.00
2019-04-29T00:51:35.233Z,9.00
2019-04-29T00:54:15.050Z,9.10
2019-04-29T00:56:45.385Z,9.10
2019-04-29T00:59:15.706Z,9.10
2019-04-29T01:01:46.153Z,9.10
2019-04-29T01:04:16.523Z,9.10
2019-04-29T01:06:46.783Z,9.10
2019-04-29T01:09:18.521Z,9.10
2019-04-29T01:11:49.115Z,9.10
2019-04-29T01:14:19.243Z,9.20
2019-04-29T01:16:49.438Z,9.20
2019-04-29T01:19:19.747Z,9.20
2019-04-29T01:21:49.925Z,9.20
2019-04-29T01:24:20.296Z,9.20
2019-04-29T01:27:14.618Z,9.20
2019-04-29T01:29:44.829Z,9.20
2019-04-29T01:32:15.174Z,9.10
2019-04-29T01:34:51.831Z,9.10
2019-04-29T01:37:33.865Z,9.10
2019-04-29T01:40:32.798Z,9.10
2019-04-29T01:43:03.070Z,9.00
2019-04-29T01:45:33.280Z,9.00
2019-04-29T01:48:03.690Z,8.90
2019-04-29T01:50:33.961Z,8.90
2019-04-29T01:53:04.150Z,8.90
2019-04-29T01:55:34.331Z,8.80
2019-04-29T01:58:04.667Z,8.80
2019-04-29T02:00:34.937Z,8.80
2019-04-29T02:03:05.245Z,8.70
2019-04-29T02:05:35.380Z,8.70
2019-04-29T02:08:05.670Z,8.70
2019-04-29T02:10:35.904Z,8.60
2019-04-29T02:13:06.225Z,8.60
2019-04-29T02:15:36.364Z,8.60
2019-04-29T02:18:06.540Z,8.60
2019-04-29T02:20:36.863Z,8.60
2019-04-29T02:23:32.022Z,8.50
2019-04-29T02:26:02.159Z,8.50
2019-04-29T02:28:32.308Z,8.40
2019-04-29T02:31:21.549Z,8.40
2019-04-29T02:33:51.807Z,8.30
2019-04-29T02:36:22.087Z,8.30
2019-04-29T02:39:04.433Z,8.10
2019-04-29T02:41:44.989Z,8.00
2019-04-29T02:44:15.670Z,8.00
2019-04-29T02:46:45.917Z,7.90
2019-04-29T02:49:16.275Z,7.90
2019-04-29T02:51:49.434Z,7.80
2019-04-29T02:54:19.891Z,7.80
2019-04-29T02:56:57.466Z,7.70
2019-04-29T02:59:32.576Z,7.70
2019-04-29T03:02:18.285Z,7.70
2019-04-29T03:05:06.324Z,7.70
2019-04-29T03:07:36.491Z,7.60
2019-04-29T03:10:06.829Z,7.60
2019-04-29T03:12:37.190Z,7.50
2019-04-29T03:15:07.654Z,7.50
2019-04-29T03:17:38.299Z,7.50
2019-04-29T03:20:26.212Z,7.50
2019-04-29T03:23:10.819Z,7.40
2019-04-29T03:25:41.057Z,7.50
2019-04-29T03:28:11.380Z,7.50
2019-04-29T03:30:41.699Z,7.40
2019-04-29T03:33:11.936Z,7.40
2019-04-29T03:35:42.151Z,7.40
2019-04-29T03:38:12.376Z,7.40
2019-04-29T03:40:42.683Z,7.40
2019-04-29T03:43:13.103Z,7.50
2019-04-29T03:45:43.680Z,7.50
2019-04-29T03:48:13.973Z,7.50
2019-04-29T03:50:44.314Z,7.50
2019-04-29T03:53:14.695Z,7.40
2019-04-29T03:55:44.923Z,7.40
2019-04-29T03:58:15.181Z,7.40
2019-04-29T04:00:47.133Z,7.40
2019-04-29T04:03:25.104Z,7.40
2019-04-29T04:06:02.575Z,7.30
2019-04-29T04:08:42.285Z,7.40
2019-04-29T04:11:12.612Z,7.30
2019-04-29T04:13:42.910Z,7.30
2019-04-29T04:16:20.699Z,7.30
2019-04-29T04:18:52.508Z,7.30
2019-04-29T04:21:22.897Z,7.30
2019-04-29T04:23:53.063Z,7.20
2019-04-29T04:26:23.432Z,7.20
2019-04-29T04:28:53.720Z,7.20
2019-04-29T04:31:24.175Z,7.10
2019-04-29T04:33:54.456Z,7.10
2019-04-29T04:36:24.694Z,7.10
2019-04-29T04:38:55.102Z,7.10
2019-04-29T04:41:25.489Z,7.10
2019-04-29T04:43:55.768Z,7.20
2019-04-29T04:46:26.041Z,7.20
2019-04-29T04:48:56.420Z,7.20
2019-04-29T04:51:26.847Z,7.30
2019-04-29T04:53:57.244Z,7.40
2019-04-29T04:56:27.496Z,7.40
2019-04-29T04:58:57.782Z,7.50
2019-04-29T05:01:28.242Z,7.50
2019-04-29T05:03:58.457Z,7.60
2019-04-29T05:06:28.899Z,7.70
2019-04-29T05:08:59.106Z,7.70
2019-04-29T05:11:29.587Z,7.80
2019-04-29T05:14:00.017Z,7.90
2019-04-29T05:16:30.344Z,8.00
2019-04-29T05:19:00.689Z,8.00
2019-04-29T05:21:30.865Z,8.10
2019-04-29T05:24:01.074Z,8.10
2019-04-29T05:26:31.353Z,8.10
2019-04-29T05:29:01.777Z,8.20
2019-04-29T05:31:32.071Z,8.20
2019-04-29T05:34:02.313Z,8.30
2019-04-29T05:36:41.516Z,8.30
2019-04-29T05:39:16.361Z,8.30
2019-04-29T05:41:46.653Z,8.40
2019-04-29T05:44:42.015Z,8.40
2019-04-29T05:47:17.959Z,8.40
2019-04-29T05:50:06.638Z,8.50
2019-04-29T05:52:46.183Z,8.50
2019-04-29T05:55:16.516Z,8.60
2019-04-29T05:57:46.700Z,8.60
2019-04-29T06:00:18.779Z,8.70
2019-04-29T06:02:49.868Z,8.70
2019-04-29T06:05:20.328Z,8.70
2019-04-29T06:07:51.711Z,8.80
2019-04-29T06:10:22.987Z,8.80
2019-04-29T06:12:54.256Z,8.80
2019-04-29T06:15:24.584Z,8.90
2019-04-29T06:17:54.877Z,8.90
2019-04-29T06:20:25.176Z,8.90
2019-04-29T06:22:55.557Z,9.00
2019-04-29T06:25:25.938Z,9.00
2019-04-29T06:27:56.331Z,9.10
2019-04-29T06:30:26.717Z,9.10
2019-04-29T06:32:56.999Z,9.10
2019-04-29T06:35:27.295Z,9.20
2019-04-29T06:37:57.705Z,9.30
2019-04-29T06:40:30.558Z,9.30
2019-04-29T06:43:00.197Z,9.40
2019-04-29T06:45:30.609Z,9.40
2019-04-29T06:48:00.774Z,9.40
2019-04-29T06:50:31.089Z,9.50
2019-04-29T06:53:01.295Z,9.50
2019-04-29T06:55:31.625Z,9.60
2019-04-29T06:58:01.927Z,9.60
2019-04-29T07:00:32.369Z,9.70
2019-04-29T07:03:02.669Z,9.70
2019-04-29T07:05:33.091Z,9.80
2019-04-29T07:08:03.409Z,9.80
2019-04-29T07:10:33.805Z,9.90
2019-04-29T07:13:04.343Z,9.90
2019-04-29T07:15:34.627Z,10.00
2019-04-29T07:18:05.088Z,10.00
2019-04-29T07:20:37.052Z,10.10
2019-04-29T07:23:07.331Z,10.10
2019-04-29T07:25:37.624Z,10.10
2019-04-29T07:28:07.941Z,10.20
2019-04-29T07:30:59.971Z,10.20
2019-04-29T07:33:10.191Z,10.30
2019-04-29T07:35:42.915Z,10.30
2019-04-29T07:38:12.619Z,10.40
2019-04-29T07:40:44.639Z,10.40
2019-04-29T07:43:15.260Z,10.50
2019-04-29T07:46:22.859Z,10.50
2019-04-29T07:49:01.429Z,10.60
2019-04-29T07:51:25.098Z,10.70
2019-04-29T07:53:55.363Z,10.80
2019-04-29T07:56:25.603Z,10.90
2019-04-29T07:58:59.006Z,11.00
2019-04-29T08:01:27.833Z,11.00
2019-04-29T08:03:58.081Z,11.10
2019-04-29T08:06:28.616Z,11.20
2019-04-29T08:09:07.074Z,11.20
2019-04-29T08:11:32.695Z,11.30
2019-04-29T08:14:03.300Z,11.30
2019-04-29T08:16:33.582Z,11.40
2019-04-29T08:19:04.989Z,11.40
2019-04-29T08:21:35.551Z,11.50
2019-04-29T08:24:05.812Z,11.60
2019-04-29T08:26:38.531Z,11.60
2019-04-29T08:29:08.026Z,11.70
2019-04-29T08:31:38.268Z,11.80
2019-04-29T08:34:08.640Z,11.80
2019-04-29T08:36:38.920Z,11.80
2019-04-29T08:39:09.226Z,11.80
2019-04-29T08:41:39.525Z,11.90
2019-04-29T08:44:32.126Z,12.00
2019-04-29T08:47:12.397Z,12.00
2019-04-29T08:49:42.643Z,12.10
2019-04-29T08:52:13.015Z,12.10
2019-04-29T08:54:43.232Z,12.10
2019-04-29T08:57:13.516Z,12.20
2019-04-29T08:59:43.698Z,12.20
2019-04-29T09:02:13.934Z,12.20
2019-04-29T09:04:53.360Z,12.20
2019-04-29T09:07:17.477Z,12.20
2019-04-29T09:09:48.491Z,12.30
2019-04-29T09:13:54.561Z,12.30
2019-04-29T09:14:50.942Z,12.40
2019-04-29T09:17:21.113Z,12.50
2019-04-29T09:19:51.320Z,12.50
2019-04-29T09:22:23.249Z,12.60
2019-04-29T09:25:11.498Z,12.70
2019-04-29T09:27:44.989Z,12.80
2019-04-29T09:30:15.625Z,12.90
2019-04-29T09:32:45.911Z,12.90
2019-04-29T09:35:16.434Z,12.90
2019-04-29T09:37:46.834Z,13.00
2019-04-29T09:40:18.944Z,13.00
2019-04-29T09:43:15.393Z,13.00
2019-04-29T09:45:48.995Z,13.00
2019-04-29T09:48:19.354Z,13.10
2019-04-29T09:50:49.630Z,13.10
2019-04-29T09:53:19.964Z,13.10
2019-04-29T09:55:50.718Z,13.10
2019-04-29T09:58:21.026Z,13.10
2019-04-29T10:01:06.084Z,13.00
2019-04-29T10:03:54.185Z,13.10
2019-04-29T10:06:27.756Z,13.00
2019-04-29T10:08:58.034Z,13.00
2019-04-29T10:11:28.350Z,13.00
2019-04-29T10:13:58.573Z,13.00
2019-04-29T10:16:45.436Z,13.00
2019-04-29T10:19:46.625Z,13.10
2019-04-29T10:22:16.975Z,13.00
2019-04-29T10:24:47.306Z,13.00
2019-04-29T10:27:17.514Z,13.00
2019-04-29T10:29:50.890Z,13.10
2019-04-29T10:32:22.505Z,13.10
2019-04-29T10:34:52.909Z,13.10
2019-04-29T10:37:29.513Z,13.20
2019-04-29T10:40:17.213Z,13.20
2019-04-29T10:42:54.821Z,13.10
2019-04-29T10:45:59.132Z,13.20
2019-04-29T10:48:33.221Z,13.20
2019-04-29T10:51:04.495Z,13.30
2019-04-29T10:53:35.431Z,13.30
2019-04-29T10:56:06.991Z,13.40
2019-04-29T10:58:37.433Z,13.50
2019-04-29T11:02:15.873Z,13.40
2019-04-29T11:04:48.282Z,13.40
2019-04-29T11:07:28.655Z,13.40
2019-04-29T11:10:03.862Z,13.30
2019-04-29T11:12:34.189Z,13.20
2019-04-29T11:15:05.278Z,13.30
2019-04-29T11:17:39.572Z,13.30
2019-04-29T11:20:11.299Z,13.20
2019-04-29T11:22:46.215Z,13.30
2019-04-29T11:25:36.922Z,13.30
2019-04-29T11:28:07.339Z,13.40
2019-04-29T11:30:39.341Z,13.40
2019-04-29T11:33:18.403Z,13.30
2019-04-29T11:36:04.129Z,13.30
2019-04-29T11:38:38.281Z,13.30
2019-04-29T11:41:07.316Z,13.30
2019-04-29T11:43:37.832Z,13.30
2019-04-29T11:46:10.062Z,13.20
2019-04-29T11:48:40.251Z,13.30
2019-04-29T11:51:20.749Z,13.40
2019-04-29T11:53:51.129Z,13.40
2019-04-29T11:56:21.407Z,13.40
2019-04-29T11:59:26.181Z,13.30
2019-04-29T12:02:44.071Z,13.30
2019-04-29T12:05:04.139Z,13.30
2019-04-29T12:07:34.159Z,13.10
2019-04-29T12:10:06.639Z,13.00
2019-04-29T12:12:37.137Z,12.90
2019-04-29T12:15:25.313Z,12.80
2019-04-29T12:18:03.225Z,12.70
2019-04-29T12:20:41.935Z,12.60
2019-04-29T12:23:15.614Z,12.60
2019-04-29T12:25:44.275Z,12.50
2019-04-29T12:28:19.293Z,12.50
2019-04-29T12:30:48.118Z,12.50
2019-04-29T12:33:27.138Z,12.50
2019-04-29T12:36:05.129Z,12.50
2019-04-29T12:38:53.295Z,12.50
2019-04-29T12:42:00.710Z,12.40
2019-04-29T12:44:47.482Z,12.40
2019-04-29T12:47:46.292Z,12.40
2019-04-29T12:50:17.425Z,12.40
2019-04-29T12:52:48.615Z,12.30
2019-04-29T12:55:43.158Z,12.30
2019-04-29T12:57:55.003Z,12.30
2019-04-29T13:00:27.704Z,12.30
2019-04-29T13:03:22.994Z,12.30
2019-04-29T13:06:15.047Z,12.20
2019-04-29T13:08:51.277Z,12.30
2019-04-29T13:11:35.924Z,12.30
2019-04-29T13:13:56.727Z,12.30
2019-04-29T13:16:35.034Z,12.40
2019-04-29T13:19:18.355Z,12.40
2019-04-29T13:21:45.441Z,12.40
2019-04-29T13:24:23.647Z,12.40
2019-04-29T13:26:47.699Z,12.30
2019-04-29T13:29:26.883Z,12.30
2019-04-29T13:31:49.922Z,12.20
2019-04-29T13:34:33.480Z,12.20
2019-04-29T13:37:08.049Z,12.10
2019-04-29T13:39:39.965Z,12.10
2019-04-29T13:42:09.305Z,12.10
2019-04-29T13:44:42.680Z,12.00
2019-04-29T13:47:30.937Z,12.00
2019-04-29T13:50:17.980Z,11.90
2019-04-29T13:52:40.775Z,12.00
2019-04-29T13:55:17.717Z,11.90
2019-04-29T13:57:45.032Z,11.80
2019-04-29T14:00:29.086Z,11.80
2019-04-29T14:03:12.898Z,11.90
2019-04-29T14:05:43.450Z,11.90
2019-04-29T14:08:13.666Z,11.90
2019-04-29T14:10:46.905Z,11.80
2019-04-29T14:13:17.599Z,11.80
2019-04-29T14:15:47.818Z,11.80
2019-04-29T14:18:17.996Z,11.80
2019-04-29T14:20:51.774Z,11.80
2019-04-29T14:23:20.269Z,11.80
2019-04-29T14:25:50.490Z,11.80
2019-04-29T14:28:20.655Z,11.70
2019-04-29T14:30:50.968Z,11.70
2019-04-29T14:33:26.111Z,11.70
2019-04-29T14:36:04.804Z,11.60
2019-04-29T14:38:36.051Z,11.60
2019-04-29T14:41:06.918Z,11.50
2019-04-29T14:43:56.993Z,11.40
2019-04-29T14:46:46.162Z,11.40
2019-04-29T14:49:28.564Z,11.30
2019-04-29T14:51:58.852Z,11.30
2019-04-29T14:54:29.072Z,11.30
2019-04-29T14:56:59.383Z,11.20
2019-04-29T14:59:29.648Z,11.20
2019-04-29T15:02:03.787Z,11.20
2019-04-29T15:04:37.126Z,11.20
2019-04-29T15:07:07.480Z,11.20
2019-04-29T15:09:55.920Z,11.20
2019-04-29T15:12:51.905Z,11.10
2019-04-29T15:15:47.247Z,11.20
2019-04-29T15:18:54.858Z,11.10
2019-04-29T15:21:53.142Z,11.10
2019-04-29T15:24:27.431Z,11.10
2019-04-29T15:26:55.422Z,11.10
2019-04-29T15:29:25.609Z,11.10
2019-04-29T15:31:55.974Z,11.00
2019-04-29T15:34:26.162Z,11.00
2019-04-29T15:36:56.398Z,10.90
2019-04-29T15:39:26.939Z,10.80
2019-04-29T15:41:57.311Z,10.80
2019-04-29T15:44:27.698Z,10.80
2019-04-29T15:46:58.075Z,10.90
2019-04-29T15:49:28.396Z,10.90
2019-04-29T15:51:58.792Z,10.80
2019-04-29T15:54:29.124Z,10.80
2019-04-29T15:57:03.830Z,10.70
2019-04-29T15:59:47.485Z,10.80
2019-04-29T16:02:05.063Z,10.60
2019-04-29T16:04:39.574Z,10.60
2019-04-29T16:07:29.911Z,10.70
2019-04-29T16:10:28.220Z,10.60
2019-04-29T16:13:02.053Z,10.60
2019-04-29T16:15:32.390Z,10.60
2019-04-29T16:18:05.275Z,10.60
2019-04-29T16:20:34.740Z,10.50
2019-04-29T16:23:05.060Z,10.50
2019-04-29T16:28:07.342Z,10.50
2019-04-29T16:30:37.654Z,10.50
2019-04-29T16:33:14.333Z,10.60
2019-04-29T16:35:39.939Z,10.50
2019-04-29T16:38:11.665Z,10.60
2019-04-29T16:40:46.400Z,10.50
2019-04-29T16:43:36.794Z,10.50
2019-04-29T16:46:10.561Z,10.50
2019-04-29T16:48:40.801Z,10.50
2019-04-29T16:51:14.464Z,10.50
2019-04-29T16:53:43.143Z,10.30
2019-04-29T16:56:16.372Z,10.40
2019-04-29T16:58:45.461Z,10.30
2019-04-29T17:01:15.660Z,10.30
2019-04-29T17:03:46.015Z,10.30
2019-04-29T17:06:16.249Z,10.30
2019-04-29T17:09:11.610Z,10.20
2019-04-29T17:11:42.675Z,10.10
2019-04-29T17:14:13.113Z,10.20
2019-04-29T17:16:43.438Z,10.10
2019-04-29T17:19:13.734Z,10.20
2019-04-29T17:21:44.065Z,10.20
2019-04-29T17:24:14.323Z,10.20
2019-04-29T17:26:55.707Z,10.20
2019-04-29T17:29:45.432Z,10.10
2019-04-29T17:32:43.804Z,10.10
2019-04-29T17:35:08.117Z,10.20
2019-04-29T17:35:14.119Z,10.50
2019-04-29T17:37:38.497Z,10.10
2019-04-29T17:40:10.484Z,10.10
2019-04-29T17:42:42.431Z,10.10
2019-04-29T17:45:26.966Z,10.10
2019-04-29T17:48:01.992Z,10.20
2019-04-29T17:50:46.643Z,10.20
2019-04-29T17:53:24.872Z,10.20
2019-04-29T17:56:20.077Z,10.10
2019-04-29T17:58:58.108Z,10.10
2019-04-29T18:01:42.692Z,10.00
2019-04-29T18:04:21.887Z,10.10
2019-04-29T18:07:08.197Z,10.10
2019-04-29T18:09:44.967Z,10.10
2019-04-29T18:12:24.883Z,10.10
2019-04-29T18:14:55.581Z,10.10
2019-04-29T18:17:31.302Z,10.10
2019-04-29T18:20:17.172Z,10.10
2019-04-29T18:23:04.946Z,10.10
2019-04-29T18:25:54.769Z,10.10
2019-04-29T18:28:25.327Z,10.10
2019-04-29T18:30:57.804Z,10.10
2019-04-29T18:33:30.208Z,10.10
2019-04-29T18:36:04.464Z,10.20
2019-04-29T18:38:31.460Z,10.20
2019-04-29T18:41:01.781Z,10.20
2019-04-29T18:43:32.097Z,10.20
2019-04-29T18:46:06.042Z,10.20
2019-04-29T18:48:35.356Z,10.20
2019-04-29T18:51:06.056Z,10.20
2019-04-29T18:53:36.362Z,10.30
2019-04-29T18:56:06.581Z,10.30
2019-04-29T18:58:37.166Z,10.30
2019-04-29T19:01:07.346Z,10.30
2019-04-29T19:03:55.623Z,10.30
2019-04-29T19:06:25.652Z,10.30
2019-04-29T19:09:01.771Z,10.20
2019-04-29T19:11:32.165Z,10.30
2019-04-29T19:13:59.874Z,10.20
2019-04-29T19:16:30.216Z,10.30
2019-04-29T19:19:01.861Z,10.30
2019-04-29T19:21:32.290Z,10.30
2019-04-29T19:24:02.574Z,10.30
2019-04-29T19:26:32.873Z,10.30
2019-04-29T19:29:08.140Z,10.30
2019-04-29T19:31:36.824Z,10.30
2019-04-29T19:34:09.684Z,10.40
2019-04-29T19:36:38.990Z,10.40
2019-04-29T19:39:09.496Z,10.40
2019-04-29T19:41:39.761Z,10.40
2019-04-29T19:44:10.113Z,10.40
2019-04-29T19:46:41.334Z,10.40
2019-04-29T19:49:11.762Z,10.50
2019-04-29T19:51:43.671Z,10.40
2019-04-29T19:54:16.925Z,10.50
2019-04-29T19:56:46.093Z,10.50
2019-04-29T19:59:17.570Z,10.50
2019-04-29T20:01:51.134Z,10.50
2019-04-29T20:04:38.857Z,10.50
2019-04-29T20:07:10.897Z,10.50
2019-04-29T20:09:42.728Z,10.50
2019-04-29T20:12:16.903Z,10.50
2019-04-29T20:14:45.920Z,10.50
2019-04-29T20:17:36.610Z,10.50
2019-04-29T20:20:22.416Z,10.50
2019-04-29T20:22:52.922Z,10.60
2019-04-29T20:25:30.261Z,10.60
2019-04-29T20:28:05.501Z,10.60
2019-04-29T20:30:27.401Z,10.60
2019-04-29T20:33:01.187Z,10.60
2019-04-29T20:35:29.757Z,10.60
2019-04-29T20:38:00.504Z,10.60
2019-04-29T20:40:35.315Z,10.60
2019-04-29T20:43:03.167Z,10.60
2019-04-29T20:45:35.351Z,10.60
2019-04-29T20:48:06.465Z,10.60
2019-04-29T20:50:36.976Z,10.60
2019-04-29T20:53:15.710Z,10.60
2019-04-29T20:55:46.583Z,10.60
2019-04-29T20:58:16.989Z,10.60
2019-04-29T21:00:51.087Z,10.60
2019-04-29T21:03:27.621Z,10.70
2019-04-29T21:05:54.953Z,10.70
2019-04-29T21:08:25.929Z,10.70
2019-04-29T21:10:58.469Z,10.70
2019-04-29T21:13:48.844Z,10.70
2019-04-29T21:16:29.034Z,10.70
2019-04-29T21:18:57.427Z,10.70
2019-04-29T21:21:27.692Z,10.70
2019-04-29T21:23:58.536Z,10.70
2019-04-29T21:26:29.042Z,10.70
2019-04-29T21:28:59.215Z,10.70
2019-04-29T21:31:29.577Z,10.70
2019-04-29T21:33:59.930Z,10.70
2019-04-29T21:37:01.619Z,10.70
2019-04-29T21:39:51.002Z,10.70
2019-04-29T21:42:36.964Z,10.70
2019-04-29T21:45:09.000Z,10.70
2019-04-29T21:47:45.643Z,10.70
2019-04-29T21:50:11.571Z,10.70
2019-04-29T21:52:41.950Z,10.70
2019-04-29T21:55:12.367Z,10.70
2019-04-29T21:57:42.707Z,10.70
2019-04-29T22:00:15.622Z,10.80
2019-04-29T22:02:46.667Z,10.70
2019-04-29T22:05:18.582Z,10.80
2019-04-29T22:07:49.155Z,10.80
2019-04-29T22:10:24.366Z,10.80
2019-04-29T22:12:58.408Z,10.80
2019-04-29T22:15:32.833Z,10.80
2019-04-29T22:18:01.289Z,10.80
2019-04-29T22:20:28.615Z,10.80
2019-04-29T22:22:58.908Z,10.80
2019-04-29T22:25:29.041Z,10.80
2019-04-29T22:27:59.252Z,10.90
2019-04-29T22:30:29.506Z,10.90
2019-04-29T22:33:00.021Z,10.90
2019-04-29T22:35:32.855Z,10.90
2019-04-29T22:38:02.212Z,10.90
2019-04-29T22:40:34.152Z,10.90
2019-04-29T22:43:16.789Z,10.90
2019-04-29T22:45:47.210Z,10.90
2019-04-29T22:48:19.807Z,10.90
2019-04-29T22:50:49.635Z,10.90
2019-04-29T22:53:19.993Z,10.90
2019-04-29T22:55:50.359Z,10.90
2019-04-29T22:58:20.657Z,10.90
2019-04-29T23:00:50.956Z,10.90
2019-04-29T23:03:21.161Z,10.90
2019-04-29T23:05:51.571Z,10.90
2019-04-29T23:08:21.797Z,10.90
2019-04-29T23:10:51.999Z,10.90
2019-04-29T23:13:22.270Z,11.00
2019-04-29T23:15:53.730Z,11.00
2019-04-29T23:18:29.123Z,10.90
2019-04-29T23:21:37.389Z,10.90
2019-04-29T23:24:26.041Z,10.90
2019-04-29T23:26:56.651Z,10.90
2019-04-29T23:29:27.047Z,11.00
2019-04-29T23:31:59.663Z,10.90
2019-04-29T23:34:29.599Z,11.00
2019-04-29T23:36:59.885Z,11.00
2019-04-29T23:39:30.113Z,11.00
2019-04-29T23:42:06.434Z,11.00
2019-04-29T23:44:32.427Z,11.00
2019-04-29T23:47:05.308Z,11.00
2019-04-29T23:49:36.987Z,11.00
2019-04-29T23:52:11.079Z,11.00
2019-04-29T23:54:46.932Z,11.10
2019-04-29T23:57:25.500Z,11.10
